sensor_id;sensor_type;location;lat;lon;timestamp;P1;durP1;ratioP1;P2;durP2;ratioP2
83099;SDS011;72972;51.784;4.660;2024-01-30T00:01:37;2.63;;;2.30;;
83099;SDS011;72972;51.784;4.660;2024-01-30T00:07:01;2.72;;;2.10;;
83099;SDS011;72972;51.784;4.660;2024-01-30T00:09:34;3.38;;;2.45;;
83099;SDS011;72972;51.784;4.660;2024-01-30T00:12:11;2.42;;;1.90;;
83099;SDS011;72972;51.784;4.660;2024-01-30T00:15:06;3.30;;;1.90;;
83099;SDS011;72972;51.784;4.660;2024-01-30T00:17:50;2.78;;;2.00;;
83099;SDS011;72972;51.784;4.660;2024-01-30T00:20:22;3.30;;;2.15;;
83099;SDS011;72972;51.784;4.660;2024-01-30T00:22:59;2.50;;;2.00;;
83099;SDS011;72972;51.784;4.660;2024-01-30T00:25:37;2.42;;;1.92;;
83099;SDS011;72972;51.784;4.660;2024-01-30T00:28:12;2.42;;;2.10;;
83099;SDS011;72972;51.784;4.660;2024-01-30T00:30:52;2.22;;;2.03;;
83099;SDS011;72972;51.784;4.660;2024-01-30T00:33:45;2.53;;;1.80;;
83099;SDS011;72972;51.784;4.660;2024-01-30T00:36:36;2.85;;;2.10;;
83099;SDS011;72972;51.784;4.660;2024-01-30T00:39:37;2.53;;;2.33;;
83099;SDS011;72972;51.784;4.660;2024-01-30T00:42:14;2.58;;;1.98;;
83099;SDS011;72972;51.784;4.660;2024-01-30T00:45:38;3.08;;;2.20;;
83099;SDS011;72972;51.784;4.660;2024-01-30T00:48:09;2.40;;;1.98;;
83099;SDS011;72972;51.784;4.660;2024-01-30T00:50:58;2.50;;;1.90;;
83099;SDS011;72972;51.784;4.660;2024-01-30T00:53:29;2.53;;;2.13;;
83099;SDS011;72972;51.784;4.660;2024-01-30T00:56:10;2.50;;;2.10;;
83099;SDS011;72972;51.784;4.660;2024-01-30T00:58:46;1.95;;;1.75;;
83099;SDS011;72972;51.784;4.660;2024-01-30T01:01:28;3.05;;;2.00;;
83099;SDS011;72972;51.784;4.660;2024-01-30T01:06:42;2.38;;;1.90;;
83099;SDS011;72972;51.784;4.660;2024-01-30T01:09:40;2.20;;;1.80;;
83099;SDS011;72972;51.784;4.660;2024-01-30T01:12:18;2.30;;;2.10;;
83099;SDS011;72972;51.784;4.660;2024-01-30T01:14:52;2.40;;;2.03;;
83099;SDS011;72972;51.784;4.660;2024-01-30T01:17:21;3.90;;;2.38;;
83099;SDS011;72972;51.784;4.660;2024-01-30T01:20:10;2.40;;;1.88;;
83099;SDS011;72972;51.784;4.660;2024-01-30T01:22:45;2.35;;;2.08;;
83099;SDS011;72972;51.784;4.660;2024-01-30T01:25:45;1.88;;;1.63;;
83099;SDS011;72972;51.784;4.660;2024-01-30T01:28:20;1.92;;;1.73;;
83099;SDS011;72972;51.784;4.660;2024-01-30T01:30:53;2.25;;;2.00;;
83099;SDS011;72972;51.784;4.660;2024-01-30T01:33:50;2.30;;;1.90;;
83099;SDS011;72972;51.784;4.660;2024-01-30T01:36:33;2.38;;;1.90;;
83099;SDS011;72972;51.784;4.660;2024-01-30T01:39:04;3.35;;;1.92;;
83099;SDS011;72972;51.784;4.660;2024-01-30T01:41:43;2.13;;;1.85;;
83099;SDS011;72972;51.784;4.660;2024-01-30T01:44:38;3.20;;;2.20;;
83099;SDS011;72972;51.784;4.660;2024-01-30T01:47:07;2.17;;;1.92;;
83099;SDS011;72972;51.784;4.660;2024-01-30T01:49:43;3.25;;;2.10;;
83099;SDS011;72972;51.784;4.660;2024-01-30T01:52:24;2.30;;;2.00;;
83099;SDS011;72972;51.784;4.660;2024-01-30T01:55:14;3.47;;;2.20;;
83099;SDS011;72972;51.784;4.660;2024-01-30T01:58:00;2.38;;;1.90;;
83099;SDS011;72972;51.784;4.660;2024-01-30T02:01:07;2.78;;;2.17;;
83099;SDS011;72972;51.784;4.660;2024-01-30T02:03:54;2.65;;;2.05;;
83099;SDS011;72972;51.784;4.660;2024-01-30T02:06:44;4.07;;;2.28;;
83099;SDS011;72972;51.784;4.660;2024-01-30T02:09:31;2.60;;;1.90;;
83099;SDS011;72972;51.784;4.660;2024-01-30T02:12:08;2.45;;;1.80;;
83099;SDS011;72972;51.784;4.660;2024-01-30T02:14:47;2.40;;;2.00;;
83099;SDS011;72972;51.784;4.660;2024-01-30T02:17:28;2.42;;;2.00;;
83099;SDS011;72972;51.784;4.660;2024-01-30T02:20:15;2.10;;;1.88;;
83099;SDS011;72972;51.784;4.660;2024-01-30T02:22:43;2.40;;;1.95;;
83099;SDS011;72972;51.784;4.660;2024-01-30T02:25:35;2.53;;;2.10;;
83099;SDS011;72972;51.784;4.660;2024-01-30T02:28:22;6.38;;;2.15;;
83099;SDS011;72972;51.784;4.660;2024-01-30T02:30:48;2.58;;;1.90;;
83099;SDS011;72972;51.784;4.660;2024-01-30T02:33:27;2.55;;;2.00;;
83099;SDS011;72972;51.784;4.660;2024-01-30T02:36:13;2.78;;;2.13;;
83099;SDS011;72972;51.784;4.660;2024-01-30T02:38:45;1.98;;;1.77;;
83099;SDS011;72972;51.784;4.660;2024-01-30T02:41:22;2.65;;;2.03;;
83099;SDS011;72972;51.784;4.660;2024-01-30T02:44:26;3.55;;;1.90;;
83099;SDS011;72972;51.784;4.660;2024-01-30T02:47:10;2.40;;;1.85;;
83099;SDS011;72972;51.784;4.660;2024-01-30T02:49:48;2.42;;;1.92;;
83099;SDS011;72972;51.784;4.660;2024-01-30T02:52:19;2.35;;;1.70;;
83099;SDS011;72972;51.784;4.660;2024-01-30T02:55:08;2.60;;;2.03;;
83099;SDS011;72972;51.784;4.660;2024-01-30T02:57:43;2.63;;;2.08;;
83099;SDS011;72972;51.784;4.660;2024-01-30T03:00:30;2.20;;;1.80;;
83099;SDS011;72972;51.784;4.660;2024-01-30T03:02:59;2.60;;;2.30;;
83099;SDS011;72972;51.784;4.660;2024-01-30T03:05:27;2.28;;;1.88;;
83099;SDS011;72972;51.784;4.660;2024-01-30T03:07:53;2.50;;;1.80;;
83099;SDS011;72972;51.784;4.660;2024-01-30T03:10:27;2.75;;;1.92;;
83099;SDS011;72972;51.784;4.660;2024-01-30T03:12:55;2.10;;;1.88;;
83099;SDS011;72972;51.784;4.660;2024-01-30T03:15:24;2.20;;;2.00;;
83099;SDS011;72972;51.784;4.660;2024-01-30T03:18:07;2.28;;;2.00;;
83099;SDS011;72972;51.784;4.660;2024-01-30T03:20:43;2.30;;;1.90;;
83099;SDS011;72972;51.784;4.660;2024-01-30T03:23:18;2.40;;;2.00;;
83099;SDS011;72972;51.784;4.660;2024-01-30T03:25:44;2.30;;;1.77;;
83099;SDS011;72972;51.784;4.660;2024-01-30T03:28:33;2.80;;;2.17;;
83099;SDS011;72972;51.784;4.660;2024-01-30T03:31:02;4.22;;;2.05;;
83099;SDS011;72972;51.784;4.660;2024-01-30T03:33:36;2.17;;;1.77;;
83099;SDS011;72972;51.784;4.660;2024-01-30T03:36:06;2.20;;;2.00;;
83099;SDS011;72972;51.784;4.660;2024-01-30T03:38:52;2.75;;;2.00;;
83099;SDS011;72972;51.784;4.660;2024-01-30T03:41:24;2.47;;;2.03;;
83099;SDS011;72972;51.784;4.660;2024-01-30T03:44:18;2.45;;;2.08;;
83099;SDS011;72972;51.784;4.660;2024-01-30T03:46:50;2.35;;;2.00;;
83099;SDS011;72972;51.784;4.660;2024-01-30T03:49:55;2.70;;;2.00;;
83099;SDS011;72972;51.784;4.660;2024-01-30T03:52:45;2.30;;;2.00;;
83099;SDS011;72972;51.784;4.660;2024-01-30T03:55:19;2.15;;;1.80;;
83099;SDS011;72972;51.784;4.660;2024-01-30T03:57:48;2.60;;;2.22;;
83099;SDS011;72972;51.784;4.660;2024-01-30T04:00:17;2.30;;;2.10;;
83099;SDS011;72972;51.784;4.660;2024-01-30T04:02:51;2.50;;;1.90;;
83099;SDS011;72972;51.784;4.660;2024-01-30T04:05:28;2.22;;;1.95;;
83099;SDS011;72972;51.784;4.660;2024-01-30T04:08:25;2.50;;;2.00;;
83099;SDS011;72972;51.784;4.660;2024-01-30T04:10:56;3.15;;;2.20;;
83099;SDS011;72972;51.784;4.660;2024-01-30T04:13:25;2.30;;;1.85;;
83099;SDS011;72972;51.784;4.660;2024-01-30T04:16:00;2.30;;;1.77;;
83099;SDS011;72972;51.784;4.660;2024-01-30T04:18:28;2.22;;;1.92;;
83099;SDS011;72972;51.784;4.660;2024-01-30T04:21:06;3.38;;;1.90;;
83099;SDS011;72972;51.784;4.660;2024-01-30T04:23:51;2.47;;;2.20;;
83099;SDS011;72972;51.784;4.660;2024-01-30T04:26:29;2.55;;;2.05;;
83099;SDS011;72972;51.784;4.660;2024-01-30T04:28:55;2.40;;;1.92;;
83099;SDS011;72972;51.784;4.660;2024-01-30T04:31:32;2.88;;;2.10;;
83099;SDS011;72972;51.784;4.660;2024-01-30T04:34:01;2.10;;;1.90;;
83099;SDS011;72972;51.784;4.660;2024-01-30T04:36:56;2.17;;;1.80;;
83099;SDS011;72972;51.784;4.660;2024-01-30T04:39:36;2.53;;;1.98;;
83099;SDS011;72972;51.784;4.660;2024-01-30T04:42:10;2.20;;;1.75;;
83099;SDS011;72972;51.784;4.660;2024-01-30T04:45:11;2.78;;;1.90;;
83099;SDS011;72972;51.784;4.660;2024-01-30T04:47:48;2.03;;;1.73;;
83099;SDS011;72972;51.784;4.660;2024-01-30T04:50:19;2.65;;;1.90;;
83099;SDS011;72972;51.784;4.660;2024-01-30T04:52:58;3.15;;;2.03;;
83099;SDS011;72972;51.784;4.660;2024-01-30T04:55:35;3.08;;;2.10;;
83099;SDS011;72972;51.784;4.660;2024-01-30T04:58:18;2.15;;;1.73;;
83099;SDS011;72972;51.784;4.660;2024-01-30T05:00:47;2.47;;;1.88;;
83099;SDS011;72972;51.784;4.660;2024-01-30T05:03:17;2.22;;;1.83;;
83099;SDS011;72972;51.784;4.660;2024-01-30T05:05:50;2.45;;;1.90;;
83099;SDS011;72972;51.784;4.660;2024-01-30T05:08:27;1.88;;;1.67;;
83099;SDS011;72972;51.784;4.660;2024-01-30T05:11:09;2.40;;;2.08;;
83099;SDS011;72972;51.784;4.660;2024-01-30T05:13:36;2.20;;;2.00;;
83099;SDS011;72972;51.784;4.660;2024-01-30T05:16:04;2.55;;;2.00;;
83099;SDS011;72972;51.784;4.660;2024-01-30T05:18:33;2.85;;;2.03;;
83099;SDS011;72972;51.784;4.660;2024-01-30T05:21:05;2.30;;;2.00;;
83099;SDS011;72972;51.784;4.660;2024-01-30T05:23:48;2.33;;;1.95;;
83099;SDS011;72972;51.784;4.660;2024-01-30T05:26:13;2.08;;;1.85;;
83099;SDS011;72972;51.784;4.660;2024-01-30T05:28:48;3.67;;;1.90;;
83099;SDS011;72972;51.784;4.660;2024-01-30T05:31:20;2.50;;;2.00;;
83099;SDS011;72972;51.784;4.660;2024-01-30T05:34:04;2.70;;;1.92;;
83099;SDS011;72972;51.784;4.660;2024-01-30T05:36:39;2.75;;;1.83;;
83099;SDS011;72972;51.784;4.660;2024-01-30T05:39:11;2.22;;;1.77;;
83099;SDS011;72972;51.784;4.660;2024-01-30T05:41:49;2.10;;;1.85;;
83099;SDS011;72972;51.784;4.660;2024-01-30T05:44:20;2.08;;;1.70;;
83099;SDS011;72972;51.784;4.660;2024-01-30T05:47:00;2.45;;;2.00;;
83099;SDS011;72972;51.784;4.660;2024-01-30T05:49:29;2.70;;;1.92;;
83099;SDS011;72972;51.784;4.660;2024-01-30T05:52:04;2.15;;;1.85;;
83099;SDS011;72972;51.784;4.660;2024-01-30T05:54:50;2.70;;;2.25;;
83099;SDS011;72972;51.784;4.660;2024-01-30T05:57:16;2.80;;;1.85;;
83099;SDS011;72972;51.784;4.660;2024-01-30T05:59:50;3.33;;;2.10;;
83099;SDS011;72972;51.784;4.660;2024-01-30T06:02:28;2.30;;;2.00;;
83099;SDS011;72972;51.784;4.660;2024-01-30T06:05:03;2.15;;;1.90;;
83099;SDS011;72972;51.784;4.660;2024-01-30T06:07:32;3.00;;;2.03;;
83099;SDS011;72972;51.784;4.660;2024-01-30T06:10:07;3.08;;;2.28;;
83099;SDS011;72972;51.784;4.660;2024-01-30T06:12:39;2.30;;;1.98;;
83099;SDS011;72972;51.784;4.660;2024-01-30T06:15:14;2.13;;;1.92;;
83099;SDS011;72972;51.784;4.660;2024-01-30T06:18:24;2.50;;;2.08;;
83099;SDS011;72972;51.784;4.660;2024-01-30T06:21:30;2.60;;;1.90;;
83099;SDS011;72972;51.784;4.660;2024-01-30T06:24:52;1.90;;;1.70;;
83099;SDS011;72972;51.784;4.660;2024-01-30T06:27:47;3.30;;;2.05;;
83099;SDS011;72972;51.784;4.660;2024-01-30T06:30:55;3.33;;;2.30;;
83099;SDS011;72972;51.784;4.660;2024-01-30T06:34:02;2.67;;;1.90;;
83099;SDS011;72972;51.784;4.660;2024-01-30T06:36:40;2.40;;;2.05;;
83099;SDS011;72972;51.784;4.660;2024-01-30T06:39:37;2.20;;;1.90;;
83099;SDS011;72972;51.784;4.660;2024-01-30T06:42:06;2.30;;;1.90;;
83099;SDS011;72972;51.784;4.660;2024-01-30T06:44:37;2.33;;;2.00;;
83099;SDS011;72972;51.784;4.660;2024-01-30T06:47:15;2.60;;;1.65;;
83099;SDS011;72972;51.784;4.660;2024-01-30T06:49:41;2.10;;;1.77;;
83099;SDS011;72972;51.784;4.660;2024-01-30T06:52:11;4.22;;;1.98;;
83099;SDS011;72972;51.784;4.660;2024-01-30T06:54:38;2.38;;;1.90;;
83099;SDS011;72972;51.784;4.660;2024-01-30T06:57:04;2.90;;;1.90;;
83099;SDS011;72972;51.784;4.660;2024-01-30T07:00:12;2.95;;;2.13;;
83099;SDS011;72972;51.784;4.660;2024-01-30T07:03:05;2.67;;;2.17;;
83099;SDS011;72972;51.784;4.660;2024-01-30T07:05:40;3.08;;;2.03;;
83099;SDS011;72972;51.784;4.660;2024-01-30T07:08:18;4.65;;;2.40;;
83099;SDS011;72972;51.784;4.660;2024-01-30T07:10:47;2.42;;;2.05;;
83099;SDS011;72972;51.784;4.660;2024-01-30T07:13:36;3.30;;;2.08;;
83099;SDS011;72972;51.784;4.660;2024-01-30T07:16:08;2.83;;;2.20;;
83099;SDS011;72972;51.784;4.660;2024-01-30T07:21:40;2.63;;;2.00;;
83099;SDS011;72972;51.784;4.660;2024-01-30T07:24:42;3.10;;;2.40;;
83099;SDS011;72972;51.784;4.660;2024-01-30T07:27:23;3.88;;;1.83;;
83099;SDS011;72972;51.784;4.660;2024-01-30T07:30:01;2.72;;;1.92;;
83099;SDS011;72972;51.784;4.660;2024-01-30T07:32:30;3.25;;;2.10;;
83099;SDS011;72972;51.784;4.660;2024-01-30T07:35:02;4.18;;;2.10;;
83099;SDS011;72972;51.784;4.660;2024-01-30T07:37:35;3.25;;;2.20;;
83099;SDS011;72972;51.784;4.660;2024-01-30T07:40:04;2.80;;;2.35;;
83099;SDS011;72972;51.784;4.660;2024-01-30T07:42:48;3.92;;;2.10;;
83099;SDS011;72972;51.784;4.660;2024-01-30T07:45:34;2.00;;;1.80;;
83099;SDS011;72972;51.784;4.660;2024-01-30T07:48:15;2.97;;;1.85;;
83099;SDS011;72972;51.784;4.660;2024-01-30T07:50:49;2.97;;;2.22;;
83099;SDS011;72972;51.784;4.660;2024-01-30T07:53:15;2.67;;;2.00;;
83099;SDS011;72972;51.784;4.660;2024-01-30T07:55:58;2.50;;;2.00;;
83099;SDS011;72972;51.784;4.660;2024-01-30T07:58:31;3.63;;;2.17;;
83099;SDS011;72972;51.784;4.660;2024-01-30T08:01:02;2.45;;;1.88;;
83099;SDS011;72972;51.784;4.660;2024-01-30T08:03:39;2.50;;;2.10;;
83099;SDS011;72972;51.784;4.660;2024-01-30T08:06:08;2.60;;;2.20;;
83099;SDS011;72972;51.784;4.660;2024-01-30T08:08:45;2.67;;;2.00;;
83099;SDS011;72972;51.784;4.660;2024-01-30T08:11:36;4.28;;;1.98;;
83099;SDS011;72972;51.784;4.660;2024-01-30T08:14:23;2.42;;;1.90;;
83099;SDS011;72972;51.784;4.660;2024-01-30T08:16:58;4.20;;;1.80;;
83099;SDS011;72972;51.784;4.660;2024-01-30T08:20:00;2.75;;;1.80;;
83099;SDS011;72972;51.784;4.660;2024-01-30T08:22:58;2.20;;;2.00;;
83099;SDS011;72972;51.784;4.660;2024-01-30T08:25:36;3.30;;;1.92;;
83099;SDS011;72972;51.784;4.660;2024-01-30T08:28:20;3.65;;;2.45;;
83099;SDS011;72972;51.784;4.660;2024-01-30T08:30:48;2.58;;;2.10;;
83099;SDS011;72972;51.784;4.660;2024-01-30T08:33:17;2.83;;;2.30;;
83099;SDS011;72972;51.784;4.660;2024-01-30T08:35:51;2.53;;;2.22;;
83099;SDS011;72972;51.784;4.660;2024-01-30T08:38:30;3.03;;;2.40;;
83099;SDS011;72972;51.784;4.660;2024-01-30T08:40:59;2.70;;;1.85;;
83099;SDS011;72972;51.784;4.660;2024-01-30T08:43:25;3.10;;;2.13;;
83099;SDS011;72972;51.784;4.660;2024-01-30T08:46:00;2.90;;;2.20;;
83099;SDS011;72972;51.784;4.660;2024-01-30T08:48:26;3.60;;;1.98;;
83099;SDS011;72972;51.784;4.660;2024-01-30T08:50:58;2.65;;;2.25;;
83099;SDS011;72972;51.784;4.660;2024-01-30T08:53:30;3.45;;;2.38;;
83099;SDS011;72972;51.784;4.660;2024-01-30T08:56:09;2.38;;;1.92;;
83099;SDS011;72972;51.784;4.660;2024-01-30T08:59:01;2.63;;;2.03;;
83099;SDS011;72972;51.784;4.660;2024-01-30T09:01:33;4.95;;;2.30;;
83099;SDS011;72972;51.784;4.660;2024-01-30T09:04:02;2.70;;;1.95;;
83099;SDS011;72972;51.784;4.660;2024-01-30T09:06:34;2.35;;;1.80;;
83099;SDS011;72972;51.784;4.660;2024-01-30T09:09:04;2.60;;;1.90;;
83099;SDS011;72972;51.784;4.660;2024-01-30T09:11:36;2.63;;;2.20;;
83099;SDS011;72972;51.784;4.660;2024-01-30T09:14:05;2.38;;;1.90;;
83099;SDS011;72972;51.784;4.660;2024-01-30T09:16:38;3.15;;;2.08;;
83099;SDS011;72972;51.784;4.660;2024-01-30T09:19:09;3.38;;;2.10;;
83099;SDS011;72972;51.784;4.660;2024-01-30T09:21:46;2.55;;;2.05;;
83099;SDS011;72972;51.784;4.660;2024-01-30T09:24:39;2.88;;;2.20;;
83099;SDS011;72972;51.784;4.660;2024-01-30T09:27:29;2.28;;;1.70;;
83099;SDS011;72972;51.784;4.660;2024-01-30T09:30:11;3.15;;;2.17;;
83099;SDS011;72972;51.784;4.660;2024-01-30T09:32:49;2.50;;;1.80;;
83099;SDS011;72972;51.784;4.660;2024-01-30T09:35:19;2.58;;;1.90;;
83099;SDS011;72972;51.784;4.660;2024-01-30T09:37:48;2.63;;;1.88;;
83099;SDS011;72972;51.784;4.660;2024-01-30T09:40:37;2.60;;;2.00;;
83099;SDS011;72972;51.784;4.660;2024-01-30T09:44:08;2.25;;;1.75;;
83099;SDS011;72972;51.784;4.660;2024-01-30T09:46:48;3.17;;;1.70;;
83099;SDS011;72972;51.784;4.660;2024-01-30T09:49:19;2.20;;;1.80;;
83099;SDS011;72972;51.784;4.660;2024-01-30T09:51:52;2.70;;;1.88;;
83099;SDS011;72972;51.784;4.660;2024-01-30T09:54:36;2.20;;;1.92;;
83099;SDS011;72972;51.784;4.660;2024-01-30T09:57:07;2.67;;;1.80;;
83099;SDS011;72972;51.784;4.660;2024-01-30T09:59:58;2.83;;;1.90;;
83099;SDS011;72972;51.784;4.660;2024-01-30T10:02:27;3.08;;;2.00;;
83099;SDS011;72972;51.784;4.660;2024-01-30T10:05:23;2.95;;;1.88;;
83099;SDS011;72972;51.784;4.660;2024-01-30T10:08:06;2.92;;;2.00;;
83099;SDS011;72972;51.784;4.660;2024-01-30T10:10:50;5.22;;;1.90;;
83099;SDS011;72972;51.784;4.660;2024-01-30T10:13:25;2.60;;;1.92;;
83099;SDS011;72972;51.784;4.660;2024-01-30T10:16:08;1.95;;;1.70;;
83099;SDS011;72972;51.784;4.660;2024-01-30T10:18:49;2.03;;;1.65;;
83099;SDS011;72972;51.784;4.660;2024-01-30T10:21:21;2.97;;;1.80;;
83099;SDS011;72972;51.784;4.660;2024-01-30T10:23:55;1.92;;;1.52;;
83099;SDS011;72972;51.784;4.660;2024-01-30T10:26:54;2.38;;;1.60;;
83099;SDS011;72972;51.784;4.660;2024-01-30T10:29:38;2.53;;;1.40;;
83099;SDS011;72972;51.784;4.660;2024-01-30T10:32:13;2.58;;;1.75;;
83099;SDS011;72972;51.784;4.660;2024-01-30T10:34:46;1.90;;;1.50;;
83099;SDS011;72972;51.784;4.660;2024-01-30T10:37:18;2.55;;;1.40;;
83099;SDS011;72972;51.784;4.660;2024-01-30T10:39:50;1.77;;;1.20;;
83099;SDS011;72972;51.784;4.660;2024-01-30T10:42:24;4.13;;;1.42;;
83099;SDS011;72972;51.784;4.660;2024-01-30T10:47:36;1.17;;;0.85;;
83099;SDS011;72972;51.784;4.660;2024-01-30T10:50:05;1.38;;;1.10;;
83099;SDS011;72972;51.784;4.660;2024-01-30T10:53:08;0.98;;;0.60;;
83099;SDS011;72972;51.784;4.660;2024-01-30T10:55:46;1.20;;;0.70;;
83099;SDS011;72972;51.784;4.660;2024-01-30T10:58:17;0.45;;;0.38;;
83099;SDS011;72972;51.784;4.660;2024-01-30T11:00:50;0.70;;;0.50;;
83099;SDS011;72972;51.784;4.660;2024-01-30T11:03:28;1.65;;;0.60;;
83099;SDS011;72972;51.784;4.660;2024-01-30T11:06:04;0.88;;;0.60;;
83099;SDS011;72972;51.784;4.660;2024-01-30T11:08:38;1.73;;;0.70;;
83099;SDS011;72972;51.784;4.660;2024-01-30T11:11:08;0.60;;;0.60;;
83099;SDS011;72972;51.784;4.660;2024-01-30T11:13:43;0.43;;;0.43;;
83099;SDS011;72972;51.784;4.660;2024-01-30T11:16:20;0.60;;;0.60;;
83099;SDS011;72972;51.784;4.660;2024-01-30T11:18:52;0.50;;;0.50;;
83099;SDS011;72972;51.784;4.660;2024-01-30T11:21:28;0.70;;;0.70;;
83099;SDS011;72972;51.784;4.660;2024-01-30T11:24:07;1.20;;;0.85;;
83099;SDS011;72972;51.784;4.660;2024-01-30T11:26:45;0.70;;;0.60;;
83099;SDS011;72972;51.784;4.660;2024-01-30T11:29:16;1.98;;;0.82;;
83099;SDS011;72972;51.784;4.660;2024-01-30T11:31:58;0.93;;;0.70;;
83099;SDS011;72972;51.784;4.660;2024-01-30T11:34:40;0.77;;;0.68;;
83099;SDS011;72972;51.784;4.660;2024-01-30T11:37:09;1.67;;;0.98;;
83099;SDS011;72972;51.784;4.660;2024-01-30T11:39:48;3.42;;;1.08;;
83099;SDS011;72972;51.784;4.660;2024-01-30T11:42:19;2.10;;;1.00;;
83099;SDS011;72972;51.784;4.660;2024-01-30T11:44:47;1.70;;;0.95;;
83099;SDS011;72972;51.784;4.660;2024-01-30T11:47:18;1.17;;;0.90;;
83099;SDS011;72972;51.784;4.660;2024-01-30T11:49:47;2.40;;;1.05;;
83099;SDS011;72972;51.784;4.660;2024-01-30T11:52:16;2.53;;;1.10;;
83099;SDS011;72972;51.784;4.660;2024-01-30T11:54:56;2.70;;;1.00;;
83099;SDS011;72972;51.784;4.660;2024-01-30T11:57:26;1.65;;;0.80;;
83099;SDS011;72972;51.784;4.660;2024-01-30T11:59:58;0.55;;;0.45;;
83099;SDS011;72972;51.784;4.660;2024-01-30T12:02:26;3.53;;;1.17;;
83099;SDS011;72972;51.784;4.660;2024-01-30T12:05:19;1.30;;;0.68;;
83099;SDS011;72972;51.784;4.660;2024-01-30T12:10:56;1.95;;;0.90;;
83099;SDS011;72972;51.784;4.660;2024-01-30T12:13:33;1.48;;;0.70;;
83099;SDS011;72972;51.784;4.660;2024-01-30T12:16:33;1.92;;;1.00;;
83099;SDS011;72972;51.784;4.660;2024-01-30T12:19:10;1.92;;;0.90;;
83099;SDS011;72972;51.784;4.660;2024-01-30T12:21:53;2.63;;;0.70;;
83099;SDS011;72972;51.784;4.660;2024-01-30T12:24:41;1.42;;;1.00;;
83099;SDS011;72972;51.784;4.660;2024-01-30T12:27:14;0.80;;;0.40;;
83099;SDS011;72972;51.784;4.660;2024-01-30T12:33:21;1.05;;;0.70;;
83099;SDS011;72972;51.784;4.660;2024-01-30T12:35:50;0.77;;;0.60;;
83099;SDS011;72972;51.784;4.660;2024-01-30T12:38:24;0.52;;;0.50;;
83099;SDS011;72972;51.784;4.660;2024-01-30T12:40:52;0.52;;;0.52;;
83099;SDS011;72972;51.784;4.660;2024-01-30T12:43:53;0.85;;;0.60;;
83099;SDS011;72972;51.784;4.660;2024-01-30T12:46:40;2.80;;;0.65;;
83099;SDS011;72972;51.784;4.660;2024-01-30T12:49:19;0.73;;;0.57;;
83099;SDS011;72972;51.784;4.660;2024-01-30T12:52:17;1.65;;;0.80;;
83099;SDS011;72972;51.784;4.660;2024-01-30T12:55:13;0.52;;;0.45;;
83099;SDS011;72972;51.784;4.660;2024-01-30T12:57:54;0.70;;;0.57;;
83099;SDS011;72972;51.784;4.660;2024-01-30T13:00:28;1.10;;;0.75;;
83099;SDS011;72972;51.784;4.660;2024-01-30T13:03:28;1.65;;;0.75;;
83099;SDS011;72972;51.784;4.660;2024-01-30T13:06:02;0.70;;;0.65;;
83099;SDS011;72972;51.784;4.660;2024-01-30T13:08:57;1.63;;;1.17;;
83099;SDS011;72972;51.784;4.660;2024-01-30T13:11:23;1.67;;;1.08;;
83099;SDS011;72972;51.784;4.660;2024-01-30T13:14:02;3.67;;;1.52;;
83099;SDS011;72972;51.784;4.660;2024-01-30T13:16:34;3.53;;;1.40;;
83099;SDS011;72972;51.784;4.660;2024-01-30T13:18:59;2.28;;;1.50;;
83099;SDS011;72972;51.784;4.660;2024-01-30T13:21:29;2.08;;;1.30;;
83099;SDS011;72972;51.784;4.660;2024-01-30T13:24:03;2.28;;;1.40;;
83099;SDS011;72972;51.784;4.660;2024-01-30T13:26:34;2.55;;;1.40;;
83099;SDS011;72972;51.784;4.660;2024-01-30T13:29:26;1.75;;;1.17;;
83099;SDS011;72972;51.784;4.660;2024-01-30T13:31:56;2.03;;;1.13;;
83099;SDS011;72972;51.784;4.660;2024-01-30T13:34:36;1.90;;;1.05;;
83099;SDS011;72972;51.784;4.660;2024-01-30T13:37:18;1.88;;;1.10;;
83099;SDS011;72972;51.784;4.660;2024-01-30T13:39:59;1.30;;;1.00;;
83099;SDS011;72972;51.784;4.660;2024-01-30T13:42:35;2.00;;;0.90;;
83099;SDS011;72972;51.784;4.660;2024-01-30T13:45:30;2.22;;;0.70;;
83099;SDS011;72972;51.784;4.660;2024-01-30T13:48:02;1.80;;;0.82;;
83099;SDS011;72972;51.784;4.660;2024-01-30T13:51:10;0.95;;;0.73;;
83099;SDS011;72972;51.784;4.660;2024-01-30T13:53:47;1.25;;;0.90;;
83099;SDS011;72972;51.784;4.660;2024-01-30T13:56:16;1.45;;;0.90;;
83099;SDS011;72972;51.784;4.660;2024-01-30T14:01:24;4.70;;;1.45;;
83099;SDS011;72972;51.784;4.660;2024-01-30T14:04:05;1.90;;;1.13;;
83099;SDS011;72972;51.784;4.660;2024-01-30T14:07:05;1.38;;;0.77;;
83099;SDS011;72972;51.784;4.660;2024-01-30T14:10:20;1.33;;;0.95;;
83099;SDS011;72972;51.784;4.660;2024-01-30T14:13:03;1.45;;;1.00;;
83099;SDS011;72972;51.784;4.660;2024-01-30T14:16:01;3.03;;;0.98;;
83099;SDS011;72972;51.784;4.660;2024-01-30T14:18:53;1.50;;;1.00;;
83099;SDS011;72972;51.784;4.660;2024-01-30T14:21:49;1.88;;;0.82;;
83099;SDS011;72972;51.784;4.660;2024-01-30T14:31:34;1.02;;;0.90;;
83099;SDS011;72972;51.784;4.660;2024-01-30T14:34:29;1.42;;;0.80;;
83099;SDS011;72972;51.784;4.660;2024-01-30T14:37:21;3.72;;;1.13;;
83099;SDS011;72972;51.784;4.660;2024-01-30T14:40:18;2.50;;;0.80;;
83099;SDS011;72972;51.784;4.660;2024-01-30T14:43:11;2.15;;;0.98;;
83099;SDS011;72972;51.784;4.660;2024-01-30T14:46:20;1.25;;;0.90;;
83099;SDS011;72972;51.784;4.660;2024-01-30T14:48:55;1.92;;;1.00;;
83099;SDS011;72972;51.784;4.660;2024-01-30T14:51:46;1.77;;;0.95;;
83099;SDS011;72972;51.784;4.660;2024-01-30T14:54:27;3.75;;;1.30;;
83099;SDS011;72972;51.784;4.660;2024-01-30T14:57:14;1.85;;;1.08;;
83099;SDS011;72972;51.784;4.660;2024-01-30T15:00:03;1.80;;;1.40;;
83099;SDS011;72972;51.784;4.660;2024-01-30T15:02:48;1.80;;;1.05;;
83099;SDS011;72972;51.784;4.660;2024-01-30T15:05:17;1.80;;;1.00;;
83099;SDS011;72972;51.784;4.660;2024-01-30T15:08:21;1.92;;;1.27;;
83099;SDS011;72972;51.784;4.660;2024-01-30T15:11:16;1.80;;;1.00;;
83099;SDS011;72972;51.784;4.660;2024-01-30T15:14:06;1.65;;;0.93;;
83099;SDS011;72972;51.784;4.660;2024-01-30T15:16:48;2.17;;;1.23;;
83099;SDS011;72972;51.784;4.660;2024-01-30T15:19:29;0.90;;;0.85;;
83099;SDS011;72972;51.784;4.660;2024-01-30T15:22:12;1.13;;;0.93;;
83099;SDS011;72972;51.784;4.660;2024-01-30T15:24:38;1.13;;;0.80;;
83099;SDS011;72972;51.784;4.660;2024-01-30T15:27:25;1.52;;;1.00;;
83099;SDS011;72972;51.784;4.660;2024-01-30T15:29:56;1.52;;;0.90;;
83099;SDS011;72972;51.784;4.660;2024-01-30T15:32:31;0.85;;;0.80;;
83099;SDS011;72972;51.784;4.660;2024-01-30T15:35:22;1.73;;;1.13;;
83099;SDS011;72972;51.784;4.660;2024-01-30T15:37:53;1.30;;;0.90;;
83099;SDS011;72972;51.784;4.660;2024-01-30T15:40:28;1.65;;;0.95;;
83099;SDS011;72972;51.784;4.660;2024-01-30T15:43:27;2.35;;;1.20;;
83099;SDS011;72972;51.784;4.660;2024-01-30T15:46:04;1.23;;;1.00;;
83099;SDS011;72972;51.784;4.660;2024-01-30T15:48:41;1.05;;;0.88;;
83099;SDS011;72972;51.784;4.660;2024-01-30T15:51:18;1.17;;;0.85;;
83099;SDS011;72972;51.784;4.660;2024-01-30T15:53:51;1.25;;;1.02;;
83099;SDS011;72972;51.784;4.660;2024-01-30T15:56:36;1.35;;;1.15;;
83099;SDS011;72972;51.784;4.660;2024-01-30T15:59:06;2.42;;;1.20;;
83099;SDS011;72972;51.784;4.660;2024-01-30T16:01:32;2.63;;;1.20;;
83099;SDS011;72972;51.784;4.660;2024-01-30T16:04:01;1.63;;;1.30;;
83099;SDS011;72972;51.784;4.660;2024-01-30T16:06:32;1.90;;;1.42;;
83099;SDS011;72972;51.784;4.660;2024-01-30T16:09:00;2.42;;;1.45;;
83099;SDS011;72972;51.784;4.660;2024-01-30T16:11:40;1.70;;;1.10;;
83099;SDS011;72972;51.784;4.660;2024-01-30T16:14:20;2.33;;;1.27;;
83099;SDS011;72972;51.784;4.660;2024-01-30T16:17:14;1.65;;;1.20;;
83099;SDS011;72972;51.784;4.660;2024-01-30T16:20:13;4.10;;;1.30;;
83099;SDS011;72972;51.784;4.660;2024-01-30T16:22:42;4.60;;;1.33;;
83099;SDS011;72972;51.784;4.660;2024-01-30T16:25:18;2.25;;;1.40;;
83099;SDS011;72972;51.784;4.660;2024-01-30T16:27:46;3.92;;;1.52;;
83099;SDS011;72972;51.784;4.660;2024-01-30T16:30:18;1.55;;;1.27;;